createdAt,value
2018-10-21T00:01:05.455Z,56.60
2018-10-21T00:03:34.781Z,56.60
2018-10-21T00:06:03.179Z,56.60
2018-10-21T00:08:31.595Z,56.80
2018-10-21T00:10:59.959Z,58.00
2018-10-21T00:13:28.307Z,58.90
2018-10-21T00:15:56.674Z,59.60
2018-10-21T00:18:25.069Z,59.90
2018-10-21T00:20:53.420Z,59.80
2018-10-21T00:23:22.579Z,59.60
2018-10-21T00:25:51.976Z,60.00
2018-10-21T00:28:20.325Z,60.00
2018-10-21T00:30:48.659Z,59.90
2018-10-21T00:33:17.034Z,59.90
2018-10-21T00:35:45.371Z,59.70
2018-10-21T00:38:13.741Z,59.50
2018-10-21T00:40:42.070Z,60.00
2018-10-21T00:43:10.405Z,60.50
2018-10-21T00:45:38.766Z,61.20
2018-10-21T00:48:07.124Z,60.70
2018-10-21T00:50:35.453Z,60.70
2018-10-21T00:53:03.834Z,60.50
2018-10-21T00:55:32.197Z,60.40
2018-10-21T00:58:00.636Z,60.30
2018-10-21T01:00:28.979Z,60.20
2018-10-21T01:02:57.677Z,60.10
2018-10-21T01:05:26.053Z,60.60
2018-10-21T01:07:54.619Z,60.60
2018-10-21T01:10:22.978Z,60.50
2018-10-21T01:12:51.333Z,60.50
2018-10-21T01:15:20.455Z,60.50
2018-10-21T01:17:48.791Z,60.50
2018-10-21T01:20:17.149Z,60.40
2018-10-21T01:22:45.545Z,60.40
2018-10-21T01:25:13.871Z,60.40
2018-10-21T01:27:42.594Z,60.40
2018-10-21T01:30:11.864Z,60.40
2018-10-21T01:32:40.226Z,60.40
2018-10-21T01:35:08.843Z,60.40
2018-10-21T01:37:37.404Z,60.30
2018-10-21T01:41:12.921Z,60.50
2018-10-21T01:43:41.277Z,60.60
2018-10-21T01:46:09.630Z,60.50
2018-10-21T01:48:37.971Z,60.40
2018-10-21T01:51:06.445Z,60.80
2018-10-21T01:53:35.736Z,61.10
2018-10-21T01:56:04.144Z,60.60
2018-10-21T01:58:32.474Z,60.20
2018-10-21T02:01:00.813Z,60.20
2018-10-21T02:03:29.180Z,60.10
2018-10-21T02:05:57.562Z,60.10
2018-10-21T02:08:25.894Z,60.80
2018-10-21T02:10:54.369Z,61.10
2018-10-21T02:13:22.746Z,61.40
2018-10-21T02:15:51.088Z,61.30
2018-10-21T02:18:19.462Z,61.60
2018-10-21T02:20:47.778Z,60.80
2018-10-21T02:23:16.774Z,60.70
2018-10-21T02:25:45.105Z,60.70
2018-10-21T02:28:13.461Z,60.90
2018-10-21T02:30:41.814Z,61.20
2018-10-21T02:33:10.150Z,61.00
2018-10-21T02:35:38.484Z,60.30
2018-10-21T02:38:06.796Z,59.90
2018-10-21T02:41:46.966Z,59.80
2018-10-21T02:44:18.536Z,60.10
2018-10-21T02:46:47.468Z,59.70
2018-10-21T02:49:16.534Z,59.70
2018-10-21T02:51:49.178Z,59.60
2018-10-21T02:54:22.172Z,59.60
2018-10-21T02:56:50.726Z,59.60
2018-10-21T02:59:19.626Z,59.60
2018-10-21T03:01:47.981Z,59.70
2018-10-21T03:04:16.617Z,59.50
2018-10-21T03:06:44.960Z,59.50
2018-10-21T03:09:13.409Z,59.50
2018-10-21T03:11:41.695Z,59.40
2018-10-21T03:14:10.043Z,59.40
2018-10-21T03:16:38.432Z,59.40
2018-10-21T03:19:06.807Z,59.30
2018-10-21T03:21:35.202Z,59.30
2018-10-21T03:24:03.578Z,59.30
2018-10-21T03:26:31.916Z,59.30
2018-10-21T03:29:00.313Z,59.80
2018-10-21T03:31:29.373Z,59.70
2018-10-21T03:33:57.805Z,60.00
2018-10-21T03:36:26.045Z,60.30
2018-10-21T03:38:54.378Z,60.40
2018-10-21T03:41:22.730Z,60.50
2018-10-21T03:43:51.078Z,60.20
2018-10-21T03:46:19.593Z,59.70
2018-10-21T03:48:47.830Z,59.10
2018-10-21T03:51:16.164Z,60.80
2018-10-21T03:53:44.509Z,61.20
2018-10-21T03:56:12.868Z,60.50
2018-10-21T03:58:41.192Z,60.50
2018-10-21T04:01:09.738Z,60.30
2018-10-21T04:03:38.415Z,60.60
2018-10-21T04:06:06.762Z,61.20
2018-10-21T04:08:35.109Z,61.90
2018-10-21T04:11:03.495Z,62.40
2018-10-21T04:13:31.880Z,62.50
2018-10-21T04:16:00.261Z,62.40
2018-10-21T04:18:28.586Z,62.60
2018-10-21T04:20:56.940Z,63.00
2018-10-21T04:23:25.277Z,63.00
2018-10-21T04:25:53.652Z,62.80
2018-10-21T04:28:22.044Z,62.30
2018-10-21T04:30:50.412Z,62.80
2018-10-21T04:33:52.127Z,63.00
2018-10-21T04:36:22.068Z,63.20
2018-10-21T04:40:05.473Z,63.00
2018-10-21T04:42:33.821Z,62.90
2018-10-21T04:45:02.754Z,62.60
2018-10-21T04:47:31.428Z,62.60
2018-10-21T04:49:59.788Z,63.30
2018-10-21T04:52:29.188Z,62.80
2018-10-21T04:55:02.918Z,62.80
2018-10-21T04:57:31.301Z,63.00
2018-10-21T04:59:59.640Z,63.00
2018-10-21T05:02:28.678Z,62.60
2018-10-21T05:04:57.008Z,62.40
2018-10-21T05:07:25.471Z,62.50
2018-10-21T05:09:53.748Z,62.20
2018-10-21T05:12:22.904Z,62.10
2018-10-21T05:14:51.265Z,61.90
2018-10-21T05:17:19.600Z,61.50
2018-10-21T05:19:48.468Z,61.30
2018-10-21T05:22:16.900Z,60.80
2018-10-21T05:24:45.172Z,61.30
2018-10-21T05:27:13.507Z,60.20
2018-10-21T05:29:41.864Z,60.50
2018-10-21T05:32:10.233Z,61.20
2018-10-21T05:34:38.571Z,61.80
2018-10-21T05:37:08.460Z,61.90
2018-10-21T05:39:36.809Z,61.80
2018-10-21T05:42:05.184Z,61.50
2018-10-21T05:44:34.127Z,61.00
2018-10-21T05:47:02.496Z,61.10
2018-10-21T05:49:30.807Z,61.10
2018-10-21T05:51:59.147Z,60.80
2018-10-21T05:54:27.467Z,60.40
2018-10-21T05:56:55.807Z,60.30
2018-10-21T05:59:24.175Z,60.20
2018-10-21T06:01:53.443Z,60.30
2018-10-21T06:04:22.437Z,60.50
2018-10-21T06:06:50.765Z,60.70
2018-10-21T06:09:19.156Z,61.00
2018-10-21T06:11:48.563Z,61.20
2018-10-21T06:14:16.876Z,61.20
2018-10-21T06:16:52.403Z,61.00
2018-10-21T06:19:27.909Z,60.50
2018-10-21T06:21:56.533Z,60.50
2018-10-21T06:24:25.551Z,60.00
2018-10-21T06:26:54.030Z,60.10
2018-10-21T06:29:22.592Z,60.40
2018-10-21T06:31:51.745Z,60.70
2018-10-21T06:34:20.097Z,61.00
2018-10-21T06:36:48.499Z,61.90
2018-10-21T06:39:16.819Z,61.60
2018-10-21T06:41:45.246Z,62.00
2018-10-21T06:44:13.712Z,62.20
2018-10-21T06:46:42.091Z,62.30
2018-10-21T06:49:10.789Z,62.40
2018-10-21T06:51:40.820Z,62.50
2018-10-21T06:54:09.185Z,62.60
2018-10-21T06:56:38.819Z,62.70
2018-10-21T06:59:07.060Z,62.70
2018-10-21T07:01:35.395Z,62.70
2018-10-21T07:04:04.663Z,62.80
2018-10-21T07:06:32.998Z,62.60
2018-10-21T07:09:02.759Z,62.80
2018-10-21T07:11:31.092Z,62.90
2018-10-21T07:13:59.508Z,63.10
2018-10-21T07:16:27.978Z,65.30
2018-10-21T07:18:56.246Z,64.80
2018-10-21T07:21:24.616Z,63.00
2018-10-21T07:23:52.991Z,63.50
2018-10-21T07:26:21.723Z,63.70
2018-10-21T07:28:50.102Z,62.80
2018-10-21T07:31:18.491Z,62.60
2018-10-21T07:33:46.847Z,63.10
2018-10-21T07:36:15.245Z,64.10
2018-10-21T07:38:43.579Z,64.30
2018-10-21T07:41:11.937Z,65.00
2018-10-21T07:43:40.272Z,64.90
2018-10-21T07:46:08.702Z,64.80
2018-10-21T07:48:36.989Z,64.80
2018-10-21T07:51:05.810Z,64.80
2018-10-21T07:53:34.190Z,65.40
2018-10-21T07:56:02.524Z,65.70
2018-10-21T07:58:30.868Z,65.50
2018-10-21T08:00:59.279Z,64.90
2018-10-21T08:03:27.605Z,64.70
2018-10-21T08:06:18.044Z,65.00
2018-10-21T08:08:46.467Z,65.30
2018-10-21T08:11:16.194Z,65.50
2018-10-21T08:13:44.591Z,65.90
2018-10-21T08:16:13.013Z,65.80
2018-10-21T08:18:41.231Z,65.20
2018-10-21T08:21:09.627Z,64.40
2018-10-21T08:23:37.969Z,63.60
2018-10-21T08:26:06.398Z,63.00
2018-10-21T08:28:34.758Z,62.50
2018-10-21T08:31:03.109Z,62.50
2018-10-21T08:33:31.443Z,62.50
2018-10-21T08:35:59.804Z,62.10
2018-10-21T08:38:28.490Z,61.60
2018-10-21T08:40:56.837Z,61.90
2018-10-21T08:43:25.165Z,62.70
2018-10-21T08:45:53.523Z,61.50
2018-10-21T08:48:23.255Z,61.40
2018-10-21T08:50:52.210Z,61.50
2018-10-21T08:53:20.909Z,61.70
2018-10-21T08:55:49.326Z,61.80
2018-10-21T08:58:17.676Z,60.70
2018-10-21T09:00:46.013Z,60.00
2018-10-21T09:03:14.360Z,60.60
2018-10-21T09:05:42.720Z,60.50
2018-10-21T09:08:11.059Z,58.40
2018-10-21T09:10:39.549Z,57.10
2018-10-21T09:13:07.907Z,56.50
2018-10-21T09:15:36.253Z,57.90
2018-10-21T09:18:06.000Z,57.40
2018-10-21T09:20:34.736Z,56.60
2018-10-21T09:23:09.844Z,52.30
2018-10-21T09:25:38.205Z,52.70
2018-10-21T09:28:07.354Z,50.30
2018-10-21T09:30:35.683Z,50.30
2018-10-21T09:33:04.049Z,49.80
2018-10-21T09:35:32.432Z,49.20
2018-10-21T09:38:00.780Z,49.30
2018-10-21T09:40:29.129Z,48.10
2018-10-21T09:42:57.521Z,47.70
2018-10-21T09:45:25.854Z,46.90
2018-10-21T09:47:54.203Z,46.70
2018-10-21T09:50:22.576Z,46.50
2018-10-21T09:52:50.932Z,46.20
2018-10-21T09:55:20.578Z,45.80
2018-10-21T09:57:49.642Z,44.20
2018-10-21T10:00:23.961Z,44.40
2018-10-21T10:02:57.610Z,44.60
2018-10-21T10:05:26.054Z,43.70
2018-10-21T10:07:55.340Z,42.00
2018-10-21T10:10:24.341Z,42.10
2018-10-21T10:12:52.710Z,41.80
2018-10-21T10:15:22.277Z,41.30
2018-10-21T10:17:50.670Z,39.50
2018-10-21T10:20:18.978Z,39.80
2018-10-21T10:22:47.350Z,39.60
2018-10-21T10:25:15.781Z,38.90
2018-10-21T10:27:44.067Z,38.30
2018-10-21T10:30:13.641Z,38.60
2018-10-21T10:32:43.133Z,37.60
2018-10-21T10:35:12.368Z,37.80
2018-10-21T10:37:40.907Z,36.90
2018-10-21T10:40:12.462Z,36.80
2018-10-21T10:42:41.042Z,35.80
2018-10-21T10:45:09.417Z,34.80
2018-10-21T10:47:38.315Z,34.70
2018-10-21T10:50:08.096Z,34.30
2018-10-21T10:52:37.641Z,34.20
2018-10-21T10:55:07.444Z,33.80
2018-10-21T10:57:35.845Z,33.10
2018-10-21T11:00:04.563Z,32.50
2018-10-21T11:02:32.637Z,32.00
2018-10-21T11:05:01.021Z,32.40
2018-10-21T11:07:29.414Z,32.20
2018-10-21T11:09:57.760Z,32.10
2018-10-21T11:12:26.120Z,32.10
2018-10-21T11:14:54.503Z,30.30
2018-10-21T11:17:22.823Z,31.10
2018-10-21T11:19:51.687Z,30.10
2018-10-21T11:22:20.082Z,30.00
2018-10-21T11:24:49.133Z,30.20
2018-10-21T11:27:18.226Z,30.20
2018-10-21T11:29:47.960Z,29.80
2018-10-21T11:32:16.189Z,29.40
2018-10-21T11:34:44.563Z,28.80
2018-10-21T11:37:13.073Z,28.90
2018-10-21T11:39:42.111Z,28.70
2018-10-21T11:42:10.452Z,28.30
2018-10-21T11:44:38.829Z,28.30
2018-10-21T11:47:07.187Z,28.10
2018-10-21T11:49:35.536Z,28.30
2018-10-21T11:52:05.406Z,28.30
2018-10-21T11:54:33.903Z,28.10
2018-10-21T11:57:02.265Z,27.80
2018-10-21T11:59:30.595Z,28.20
2018-10-21T12:01:58.941Z,27.80
2018-10-21T12:04:27.336Z,27.60
2018-10-21T12:06:55.772Z,26.70
2018-10-21T12:09:24.122Z,27.40
2018-10-21T12:11:53.631Z,27.20
2018-10-21T12:14:21.965Z,27.30
2018-10-21T12:16:50.346Z,26.00
2018-10-21T12:19:18.814Z,25.20
2018-10-21T12:21:47.161Z,25.00
2018-10-21T12:24:15.524Z,24.40
2018-10-21T12:26:43.895Z,24.30
2018-10-21T12:29:12.309Z,23.30
2018-10-21T12:31:40.871Z,23.10
2018-10-21T12:34:09.234Z,23.50
2018-10-21T12:36:37.576Z,23.10
2018-10-21T12:39:08.376Z,22.70
2018-10-21T12:41:37.398Z,23.10
2018-10-21T12:44:06.322Z,22.60
2018-10-21T12:46:34.673Z,22.00
2018-10-21T12:49:03.080Z,22.20
2018-10-21T12:51:31.391Z,21.70
2018-10-21T12:53:59.806Z,21.40
2018-10-21T12:56:28.116Z,21.60
2018-10-21T12:58:56.472Z,21.80
2018-10-21T13:01:24.829Z,21.70
2018-10-21T13:03:53.271Z,21.70
2018-10-21T13:06:21.689Z,21.70
2018-10-21T13:08:50.063Z,21.70
2018-10-21T13:11:19.360Z,21.50
2018-10-21T13:13:47.699Z,21.10
2018-10-21T13:16:16.129Z,20.90
2018-10-21T13:18:44.444Z,21.10
2018-10-21T13:21:12.791Z,20.40
2018-10-21T13:23:41.167Z,20.30
2018-10-21T13:26:09.512Z,20.40
2018-10-21T13:28:37.898Z,20.00
2018-10-21T13:31:06.348Z,20.00
2018-10-21T13:33:34.643Z,20.10
2018-10-21T13:36:03.027Z,20.00
2018-10-21T13:38:31.381Z,19.70
2018-10-21T13:40:59.771Z,19.80
2018-10-21T13:43:28.135Z,19.60
2018-10-21T13:45:56.511Z,19.80
2018-10-21T13:48:25.943Z,19.60
2018-10-21T13:50:55.448Z,19.80
2018-10-21T13:53:23.842Z,19.40
2018-10-21T13:55:52.141Z,19.50
2018-10-21T13:58:20.481Z,19.40
2018-10-21T14:00:48.854Z,19.50
2018-10-21T14:03:17.225Z,19.20
2018-10-21T14:05:45.577Z,19.10
2018-10-21T14:08:14.004Z,19.30
2018-10-21T14:10:42.783Z,18.90
2018-10-21T14:13:11.167Z,18.70
2018-10-21T14:15:39.474Z,18.50
2018-10-21T14:18:07.825Z,18.80
2018-10-21T14:20:36.243Z,18.60
2018-10-21T14:23:04.559Z,18.70
2018-10-21T14:25:32.904Z,18.00
2018-10-21T14:28:01.243Z,18.10
2018-10-21T14:30:29.676Z,18.40
2018-10-21T14:32:58.012Z,18.20
2018-10-21T14:35:26.384Z,18.40
2018-10-21T14:37:54.829Z,18.40
2018-10-21T14:40:23.357Z,18.70
2018-10-21T14:42:52.417Z,19.10
2018-10-21T14:45:20.824Z,18.80
2018-10-21T14:47:49.164Z,17.90
2018-10-21T14:50:17.505Z,18.40
2018-10-21T14:52:45.915Z,18.60
2018-10-21T14:55:15.566Z,18.30
2018-10-21T14:57:43.852Z,18.20
2018-10-21T15:00:13.422Z,18.10
2018-10-21T15:02:42.147Z,18.40
2018-10-21T15:05:20.049Z,18.40
2018-10-21T15:07:48.513Z,18.70
2018-10-21T15:10:16.963Z,18.80
2018-10-21T15:12:45.258Z,18.90
2018-10-21T15:15:13.626Z,18.70
2018-10-21T15:17:42.043Z,19.20
2018-10-21T15:20:12.962Z,19.00
2018-10-21T15:22:41.321Z,18.60
2018-10-21T15:25:10.996Z,19.00
2018-10-21T15:27:39.568Z,19.00
2018-10-21T15:30:08.968Z,19.10
2018-10-21T15:32:38.544Z,19.40
2018-10-21T15:35:07.346Z,19.50
2018-10-21T15:37:36.627Z,20.10
2018-10-21T15:40:06.340Z,20.40
2018-10-21T15:42:34.753Z,19.80
2018-10-21T15:45:03.261Z,19.70
2018-10-21T15:47:31.622Z,19.30
2018-10-21T15:50:00.004Z,19.20
2018-10-21T15:52:28.420Z,19.50
2018-10-21T15:54:56.734Z,20.00
2018-10-21T15:57:25.113Z,20.60
2018-10-21T15:59:53.886Z,21.20
2018-10-21T16:02:22.349Z,21.00
2018-10-21T16:04:50.636Z,21.50
2018-10-21T16:07:19.002Z,22.10
2018-10-21T16:09:47.380Z,22.40
2018-10-21T16:12:15.798Z,22.80
2018-10-21T16:14:44.234Z,23.10
2018-10-21T16:17:12.609Z,23.40
2018-10-21T16:19:41.029Z,24.10
2018-10-21T16:22:09.533Z,24.30
2018-10-21T16:24:37.907Z,24.90
2018-10-21T16:27:06.364Z,25.50
2018-10-21T16:29:35.066Z,26.10
2018-10-21T16:32:03.626Z,27.30
2018-10-21T16:34:32.562Z,27.10
2018-10-21T16:37:00.902Z,27.10
2018-10-21T16:39:29.315Z,26.90
2018-10-21T16:41:59.971Z,26.90
2018-10-21T16:44:28.451Z,26.80
2018-10-21T16:46:56.889Z,27.50
2018-10-21T16:49:25.239Z,27.60
2018-10-21T16:51:53.595Z,27.60
2018-10-21T16:54:22.154Z,27.80
2018-10-21T16:56:50.371Z,28.00
2018-10-21T16:59:18.813Z,28.20
2018-10-21T17:01:47.226Z,28.50
2018-10-21T17:04:15.621Z,28.80
2018-10-21T17:06:44.458Z,28.90
2018-10-21T17:09:14.148Z,29.00
2018-10-21T17:11:42.926Z,29.10
2018-10-21T17:14:11.289Z,29.30
2018-10-21T17:16:39.973Z,29.60
2018-10-21T17:19:08.517Z,29.80
2018-10-21T17:21:36.888Z,29.80
2018-10-21T17:24:05.329Z,30.00
2018-10-21T17:26:33.639Z,30.00
2018-10-21T17:29:02.034Z,30.30
2018-10-21T17:31:30.402Z,30.60
2018-10-21T17:33:58.850Z,31.00
2018-10-21T17:36:27.144Z,31.20
2018-10-21T17:38:55.504Z,31.60
2018-10-21T17:41:23.930Z,32.20
2018-10-21T17:43:52.385Z,32.60
2018-10-21T17:46:20.860Z,33.00
2018-10-21T17:48:49.294Z,33.60
2018-10-21T17:51:17.714Z,34.00
2018-10-21T17:53:46.144Z,33.90
2018-10-21T17:56:14.647Z,33.90
2018-10-21T17:58:43.076Z,33.80
2018-10-21T18:01:11.673Z,34.30
2018-10-21T18:03:40.080Z,34.90
2018-10-21T18:06:08.575Z,35.00
2018-10-21T18:08:37.035Z,35.10
2018-10-21T18:11:06.173Z,35.20
2018-10-21T18:13:34.659Z,35.50
2018-10-21T18:16:03.305Z,35.70
2018-10-21T18:18:31.780Z,36.10
2018-10-21T18:21:00.138Z,36.30
2018-10-21T18:23:28.492Z,36.70
2018-10-21T18:25:56.919Z,37.00
2018-10-21T18:28:25.248Z,37.30
2018-10-21T18:30:54.712Z,37.80
2018-10-21T18:33:23.079Z,38.10
2018-10-21T18:35:51.545Z,38.40
2018-10-21T18:38:19.930Z,38.70
2018-10-21T18:40:48.620Z,38.90
2018-10-21T18:43:16.964Z,39.20
2018-10-21T18:45:45.271Z,39.30
2018-10-21T18:48:13.649Z,39.50
2018-10-21T18:50:42.010Z,39.70
2018-10-21T18:53:10.329Z,39.70
2018-10-21T18:55:38.737Z,39.80
2018-10-21T18:58:07.124Z,39.80
2018-10-21T19:00:35.417Z,40.10
2018-10-21T19:03:03.818Z,40.50
2018-10-21T19:05:32.227Z,40.50
2018-10-21T19:08:00.601Z,40.70
2018-10-21T19:10:28.952Z,41.00
2018-10-21T19:13:00.046Z,41.00
2018-10-21T19:15:25.662Z,41.20
2018-10-21T19:17:54.028Z,41.20
2018-10-21T19:20:22.381Z,41.30
2018-10-21T19:22:50.752Z,41.30
2018-10-21T19:25:19.138Z,41.30
2018-10-21T19:27:48.655Z,41.50
2018-10-21T19:30:17.003Z,41.40
2018-10-21T19:32:45.415Z,41.50
2018-10-21T19:35:14.740Z,41.50
2018-10-21T19:37:43.091Z,41.50
2018-10-21T19:40:13.642Z,42.00
2018-10-21T19:42:42.581Z,42.30
2018-10-21T19:45:11.927Z,42.20
2018-10-21T19:47:40.844Z,43.10
2018-10-21T19:50:10.621Z,43.10
2018-10-21T19:52:39.595Z,43.10
2018-10-21T19:55:08.721Z,43.00
2018-10-21T19:57:37.076Z,43.00
2018-10-21T20:00:07.616Z,42.90
2018-10-21T20:02:36.654Z,42.90
2018-10-21T20:05:05.681Z,43.10
2018-10-21T20:07:34.051Z,43.30
2018-10-21T20:10:02.500Z,43.70
2018-10-21T20:12:30.835Z,44.30
2018-10-21T20:15:00.561Z,44.60
2018-10-21T20:17:29.802Z,44.70
2018-10-21T20:19:58.162Z,44.70
2018-10-21T20:22:26.523Z,44.80
2018-10-21T20:24:54.887Z,44.90
2018-10-21T20:27:23.217Z,45.00
2018-10-21T20:29:51.570Z,45.10
2018-10-21T20:32:19.951Z,45.30
2018-10-21T20:34:48.281Z,45.50
2018-10-21T20:37:16.668Z,45.80
2018-10-21T20:39:45.061Z,46.10
2018-10-21T20:42:13.497Z,46.30
2018-10-21T20:44:41.799Z,46.50
2018-10-21T20:47:10.157Z,47.10
2018-10-21T20:49:38.824Z,47.40
2018-10-21T20:52:07.525Z,47.40
2018-10-21T20:54:41.189Z,47.50
2018-10-21T20:57:10.557Z,47.70
2018-10-21T20:59:40.995Z,47.90
2018-10-21T21:02:10.942Z,48.00
2018-10-21T21:04:39.707Z,48.10
2018-10-21T21:07:08.621Z,48.20
2018-10-21T21:09:37.333Z,48.30
2018-10-21T21:12:05.829Z,48.60
2018-10-21T21:14:34.352Z,49.40
2018-10-21T21:17:03.324Z,48.80
2018-10-21T21:19:31.737Z,48.90
2018-10-21T21:22:00.130Z,49.00
2018-10-21T21:24:28.575Z,49.20
2018-10-21T21:26:56.970Z,49.60
2018-10-21T21:29:26.237Z,49.50
2018-10-21T21:31:54.601Z,49.50
2018-10-21T21:34:22.972Z,50.10
2018-10-21T21:36:51.327Z,50.30
2018-10-21T21:39:19.681Z,50.10
2018-10-21T21:41:48.059Z,50.30
2018-10-21T21:44:16.407Z,50.70
2018-10-21T21:46:44.851Z,50.60
2018-10-21T21:49:14.009Z,50.90
2018-10-21T21:51:42.344Z,50.70
2018-10-21T21:54:12.271Z,50.30
2018-10-21T21:56:40.982Z,50.80
2018-10-21T21:59:09.420Z,51.50
2018-10-21T22:01:38.429Z,51.40
2018-10-21T22:04:07.620Z,51.40
2018-10-21T22:06:36.126Z,51.40
2018-10-21T22:09:07.795Z,51.40
2018-10-21T22:11:36.178Z,51.30
2018-10-21T22:14:04.899Z,51.30
2018-10-21T22:16:33.269Z,51.30
2018-10-21T22:19:01.608Z,51.30
2018-10-21T22:21:30.079Z,51.20
2018-10-21T22:23:58.533Z,51.20
2018-10-21T22:26:26.825Z,51.80
2018-10-21T22:28:55.149Z,52.10
2018-10-21T22:31:23.531Z,52.10
2018-10-21T22:33:51.884Z,52.10
2018-10-21T22:36:20.228Z,52.70
2018-10-21T22:38:48.565Z,52.70
2018-10-21T22:41:16.924Z,53.10
2018-10-21T22:43:45.333Z,53.40
2018-10-21T22:46:14.493Z,53.20
2018-10-21T22:48:42.776Z,53.20
2018-10-21T22:51:11.080Z,53.30
2018-10-21T22:53:39.435Z,53.30
2018-10-21T22:56:07.788Z,53.40
2018-10-21T22:58:36.150Z,53.40
2018-10-21T23:01:05.043Z,53.30
2018-10-21T23:03:33.343Z,53.40
2018-10-21T23:06:01.770Z,53.60
2018-10-21T23:08:30.084Z,53.90
2018-10-21T23:10:58.472Z,54.30
2018-10-21T23:13:26.781Z,54.40
2018-10-21T23:15:55.160Z,54.60
2018-10-21T23:18:24.189Z,54.90
2018-10-21T23:20:52.521Z,54.60
2018-10-21T23:23:20.946Z,54.60
2018-10-21T23:25:49.292Z,54.30
2018-10-21T23:28:18.696Z,54.30
2018-10-21T23:30:47.000Z,54.80
2018-10-21T23:33:15.370Z,54.80
2018-10-21T23:35:43.717Z,54.90
2018-10-21T23:38:12.049Z,54.50
2018-10-21T23:40:40.394Z,54.50
2018-10-21T23:43:08.791Z,54.70
2018-10-21T23:45:37.137Z,54.90
2018-10-21T23:48:05.659Z,55.20
2018-10-21T23:50:36.418Z,55.10
2018-10-21T23:53:05.155Z,55.20
2018-10-21T23:55:33.527Z,55.50
2018-10-21T23:58:01.924Z,55.50
